Time;durP1;ratioP1;P1;durP2;ratioP2;P2;SDS_P1;SDS_P2;PMS_P1;PMS_P2;Temp;Humidity;BMP_temperature;BMP_pressure;BME280_temperature;BME280_humidity;BME280_pressure;Samples;Min_cycle;Max_cycle;Signal;HPM_P1;HPM_P2
2022/10/07 00:01:54;;;;;;;10.43;2.00;;;;;;;;;;5010257;28;20025;-65
2022/10/07 00:04:21;;;;;;;;;;;;;;;;;;5000689;28;20593;-65
2022/10/07 00:06:48;;;;;;;;;;;;;;;;;;5008869;28;19912;-65
2022/10/07 00:09:16;;;;;;;11.55;2.15;;;;;;;;;;5007143;28;19912;-64
2022/10/07 00:11:43;;;;;;;11.32;1.90;;;;;;;;;;5006106;28;20040;-65
2022/10/07 00:14:11;;;;;;;10.20;2.00;;;;;;;;;;5008070;28;20042;-65
2022/10/07 00:16:40;;;;;;;9.68;1.70;;;;;;;;;;5005823;28;20391;-64
2022/10/07 00:19:11;;;;;;;10.35;1.92;;;;;;;;;;5010706;28;20022;-64
2022/10/07 00:21:39;;;;;;;12.45;1.95;;;;;;;;;;5004042;28;20047;-65
2022/10/07 00:24:07;;;;;;;11.02;2.20;;;;;;;;;;5015971;28;20033;-64
2022/10/07 00:26:35;;;;;;;11.93;2.20;;;;;;;;;;5000231;28;20116;-64
2022/10/07 00:29:04;;;;;;;13.90;2.53;;;;;;;;;;5009001;28;20033;-64
2022/10/07 00:31:34;;;;;;;10.95;2.35;;;;;;;;;;5008320;28;20110;-65
2022/10/07 00:34:01;;;;;;;9.25;2.00;;;;;;;;;;5010429;28;20464;-64
2022/10/07 00:36:30;;;;;;;12.10;2.33;;;;;;;;;;5003257;28;20163;-64
2022/10/07 00:38:59;;;;;;;11.65;2.20;;;;;;;;;;5012645;28;20369;-63
2022/10/07 00:41:35;;;;;;;14.57;2.45;;;;;;;;;;5007951;28;20436;-64
2022/10/07 00:44:21;;;;;;;13.23;2.47;;;;;;;;;;5012236;28;20663;-64
2022/10/07 00:46:47;;;;;;;12.93;2.13;;;;;;;;;;5002416;28;20045;-64
2022/10/07 00:49:14;;;;;;;11.68;2.22;;;;;;;;;;5011031;28;20029;-64
2022/10/07 00:51:41;;;;;;;11.75;2.38;;;;;;;;;;5007503;28;20499;-64
2022/10/07 00:54:09;;;;;;;11.75;2.10;;;;;;;;;;5004473;28;20049;-64
2022/10/07 00:56:35;;;;;;;14.95;2.30;;;;;;;;;;5005792;28;20029;-64
2022/10/07 00:59:01;;;;;;;;;;;;;;;;;;5010329;28;20435;-64
2022/10/07 01:01:28;;;;;;;12.43;2.10;;;;;;;;;;5006483;28;19996;-64
2022/10/07 01:03:54;;;;;;;16.90;2.60;;;;;;;;;;5007144;28;20033;-64
2022/10/07 01:06:21;;;;;;;;;;;;;;;;;;5009024;28;20326;-64
2022/10/07 01:08:49;;;;;;;11.27;2.13;;;;;;;;;;5006770;28;20450;-63
2022/10/07 01:11:15;;;;;;;13.10;2.58;;;;;;;;;;5010000;28;20053;-64
2022/10/07 01:13:48;;;;;;;12.50;2.50;;;;;;;;;;5007612;28;20037;-64
2022/10/07 01:16:20;;;;;;;14.85;2.58;;;;;;;;;;5010796;28;20045;-64
2022/10/07 01:19:05;;;;;;;14.32;2.20;;;;;;;;;;5015786;28;20478;-64
2022/10/07 01:21:34;;;;;;;15.40;2.55;;;;;;;;;;5002821;28;20135;-64
2022/10/07 01:24:09;;;;;;;13.05;2.38;;;;;;;;;;5008169;28;20037;-64
2022/10/07 01:26:38;;;;;;;17.95;2.60;;;;;;;;;;5005798;28;20396;-63
2022/10/07 01:29:09;;;;;;;14.73;2.72;;;;;;;;;;5008742;28;20125;-64
2022/10/07 01:31:36;;;;;;;13.35;2.58;;;;;;;;;;5003948;28;20033;-64
2022/10/07 01:34:03;;;;;;;18.42;2.92;;;;;;;;;;5014933;28;20041;-64
2022/10/07 01:36:31;;;;;;;16.92;2.85;;;;;;;;;;4998170;28;20055;-64
2022/10/07 01:39:01;;;;;;;14.55;2.90;;;;;;;;;;5007584;28;20009;-64
2022/10/07 01:41:28;;;;;;;13.10;2.78;;;;;;;;;;5006101;28;20463;-64
2022/10/07 01:43:54;;;;;;;18.85;3.30;;;;;;;;;;5010828;28;20044;-64
2022/10/07 01:46:23;;;;;;;17.27;3.40;;;;;;;;;;5009089;28;20041;-64
2022/10/07 01:48:50;;;;;;;17.88;3.40;;;;;;;;;;5003346;28;20028;-64
2022/10/07 01:51:23;;;;;;;12.80;2.72;;;;;;;;;;5009174;28;20401;-64
2022/10/07 01:54:08;;;;;;;14.43;2.58;;;;;;;;;;5009305;28;20428;-64
2022/10/07 01:56:52;;;;;;;15.15;2.88;;;;;;;;;;5004086;28;20301;-64
2022/10/07 01:59:38;;;;;;;13.82;2.30;;;;;;;;;;5003981;28;20055;-64
2022/10/07 02:02:07;;;;;;;16.55;2.83;;;;;;;;;;5009805;28;20034;-64
2022/10/07 02:04:56;;;;;;;15.70;2.33;;;;;;;;;;5008433;28;20119;-64
2022/10/07 02:07:58;;;;;;;15.63;2.50;;;;;;;;;;5005321;28;20128;-64
2022/10/07 02:10:43;;;;;;;17.38;2.90;;;;;;;;;;4949413;28;20041;-64
2022/10/07 02:13:16;;;;;;;15.02;2.80;;;;;;;;;;4955091;28;20053;-64
2022/10/07 02:15:46;;;;;;;14.70;2.67;;;;;;;;;;4932244;28;20482;-64
2022/10/07 02:18:16;;;;;;;13.85;2.22;;;;;;;;;;4941269;28;20059;-64
2022/10/07 02:20:45;;;;;;;11.05;2.17;;;;;;;;;;4916662;28;20062;-64
2022/10/07 02:23:15;;;;;;;11.07;2.10;;;;;;;;;;4916508;28;20046;-64
2022/10/07 02:25:45;;;;;;;11.95;2.22;;;;;;;;;;4926283;28;20050;-64
2022/10/07 02:28:12;;;;;;;15.20;2.78;;;;;;;;;;4918695;28;20042;-64
2022/10/07 02:30:41;;;;;;;13.02;2.42;;;;;;;;;;4932043;28;22336;-64
2022/10/07 02:33:09;;;;;;;11.60;2.13;;;;;;;;;;4935522;28;20047;-64
2022/10/07 02:35:48;;;;;;;11.52;2.30;;;;;;;;;;4927694;28;20106;-64
2022/10/07 02:38:16;;;;;;;10.48;2.30;;;;;;;;;;4932357;28;20086;-64
2022/10/07 02:40:58;;;;;;;11.75;2.50;;;;;;;;;;4914209;29;20031;-64
2022/10/07 02:43:35;;;;;;;11.98;2.15;;;;;;;;;;4930249;28;20620;-65
2022/10/07 02:46:25;;;;;;;12.27;2.25;;;;;;;;;;4984939;28;20112;-65
2022/10/07 02:48:56;;;;;;;12.75;2.30;;;;;;;;;;4983718;28;20286;-64
2022/10/07 02:51:24;;;;;;;10.25;2.22;;;;;;;;;;4985923;28;20139;-64
2022/10/07 02:53:51;;;;;;;11.63;2.22;;;;;;;;;;4990797;28;20041;-64
2022/10/07 02:56:19;;;;;;;11.18;2.60;;;;;;;;;;4990045;28;20411;-64
2022/10/07 02:58:45;;;;;;;9.68;1.95;;;;;;;;;;4992304;28;20076;-64
2022/10/07 03:01:15;;;;;;;9.48;2.00;;;;;;;;;;4988686;28;20030;-64
2022/10/07 03:03:41;;;;;;;13.50;2.20;;;;;;;;;;4987771;28;20038;-65
2022/10/07 03:06:07;;;;;;;10.95;2.10;;;;;;;;;;4989515;28;20109;-65
2022/10/07 03:08:34;;;;;;;10.23;1.80;;;;;;;;;;4987103;28;20052;-64
2022/10/07 03:11:00;;;;;;;;;;;;;;;;;;4992560;28;20029;-65
2022/10/07 03:13:26;;;;;;;10.45;2.20;;;;;;;;;;4983373;28;20060;-65
2022/10/07 03:15:52;;;;;;;12.82;2.03;;;;;;;;;;4989455;28;20034;-64
2022/10/07 03:18:28;;;;;;;10.55;2.10;;;;;;;;;;4988238;28;20706;-64
2022/10/07 03:20:58;;;;;;;12.43;2.40;;;;;;;;;;5008325;28;20432;-65
2022/10/07 03:23:25;;;;;;;10.13;1.75;;;;;;;;;;5008184;28;20087;-65
2022/10/07 03:25:52;;;;;;;11.85;2.22;;;;;;;;;;5014229;28;20039;-65
2022/10/07 03:28:22;;;;;;;12.07;1.95;;;;;;;;;;5008690;28;20657;-64
2022/10/07 03:30:48;;;;;;;14.73;2.67;;;;;;;;;;5006488;28;20052;-64
2022/10/07 03:33:15;;;;;;;10.15;2.33;;;;;;;;;;5007693;28;20050;-65
2022/10/07 03:35:42;;;;;;;12.65;2.40;;;;;;;;;;5005114;28;20047;-65
2022/10/07 03:38:09;;;;;;;11.40;2.03;;;;;;;;;;5009654;28;20436;-64
2022/10/07 03:40:35;;;;;;;10.65;2.17;;;;;;;;;;5006236;28;20025;-65
2022/10/07 03:43:01;;;;;;;;;;;;;;;;;;5009413;28;20076;-64
2022/10/07 03:45:30;;;;;;;8.63;1.85;;;;;;;;;;5002552;28;20741;-65
2022/10/07 03:47:58;;;;;;;12.68;2.22;;;;;;;;;;5006900;28;20032;-65
2022/10/07 03:50:26;;;;;;;12.02;2.30;;;;;;;;;;5007983;28;20024;-68
2022/10/07 03:52:54;;;;;;;11.73;2.35;;;;;;;;;;5011157;28;20048;-65
2022/10/07 03:55:22;;;;;;;9.77;2.25;;;;;;;;;;5007855;28;20499;-64
2022/10/07 03:57:49;;;;;;;10.30;2.63;;;;;;;;;;5010293;28;20432;-65
2022/10/07 04:00:20;;;;;;;15.40;2.97;;;;;;;;;;5013013;28;20543;-65
2022/10/07 04:02:48;;;;;;;11.38;2.10;;;;;;;;;;5014243;28;20026;-65
2022/10/07 04:05:17;;;;;;;11.98;2.45;;;;;;;;;;5010494;28;20087;-65
2022/10/07 04:07:47;;;;;;;15.43;2.42;;;;;;;;;;5008755;28;20480;-64
2022/10/07 04:10:15;;;;;;;11.02;2.78;;;;;;;;;;5001324;28;20057;-65
2022/10/07 04:12:43;;;;;;;11.50;2.30;;;;;;;;;;5002836;28;20079;-65
2022/10/07 04:15:12;;;;;;;13.25;2.20;;;;;;;;;;5009013;28;20107;-65
2022/10/07 04:17:40;;;;;;;10.70;2.28;;;;;;;;;;5007300;28;21433;-65
2022/10/07 04:20:08;;;;;;;11.60;2.88;;;;;;;;;;5007834;28;20131;-65
2022/10/07 04:22:35;;;;;;;12.43;2.45;;;;;;;;;;5002655;28;20068;-65
2022/10/07 04:27:52;;;;;;;11.68;2.95;;;;;;;;;;5013447;28;20117;-64
2022/10/07 04:30:21;;;;;;;11.57;3.17;;;;;;;;;;5007492;28;20034;-64
2022/10/07 04:32:49;;;;;;;9.82;2.47;;;;;;;;;;5003627;28;20034;-64
2022/10/07 04:35:16;;;;;;;11.25;3.15;;;;;;;;;;5006872;28;20030;-65
2022/10/07 04:37:43;;;;;;;11.52;2.67;;;;;;;;;;5009775;28;20148;-65
2022/10/07 04:40:11;;;;;;;11.48;2.78;;;;;;;;;;5006900;28;20712;-65
2022/10/07 04:45:25;;;;;;;11.93;2.90;;;;;;;;;;5001919;28;20646;-65
2022/10/07 04:47:51;;;;;;;15.25;3.00;;;;;;;;;;5010814;28;20033;-65
2022/10/07 04:50:17;;;;;;;14.02;2.50;;;;;;;;;;5005364;28;20037;-65
2022/10/07 04:52:43;;;;;;;13.00;2.95;;;;;;;;;;5005458;28;20057;-65
2022/10/07 04:55:11;;;;;;;;;;;;;;;;;;4993092;28;20029;-65
2022/10/07 04:57:37;;;;;;;14.80;3.00;;;;;;;;;;5004913;28;19917;-65
2022/10/07 05:00:04;;;;;;;14.90;2.92;;;;;;;;;;5007907;28;20021;-64
2022/10/07 05:02:30;;;;;;;12.18;2.75;;;;;;;;;;5007689;28;20330;-65
2022/10/07 05:04:56;;;;;;;15.30;2.45;;;;;;;;;;5009177;28;20061;-65
2022/10/07 05:07:22;;;;;;;;;;;;;;;;;;5008827;28;20037;-64
2022/10/07 05:09:49;;;;;;;9.90;2.67;;;;;;;;;;5009382;28;20256;-65
2022/10/07 05:12:16;;;;;;;;;;;;;;;;;;5011774;28;20124;-65
2022/10/07 05:14:43;;;;;;;13.50;3.13;;;;;;;;;;5007784;28;20024;-65
2022/10/07 05:17:09;;;;;;;10.07;2.65;;;;;;;;;;5010139;28;20032;-64
2022/10/07 05:19:35;;;;;;;13.85;3.00;;;;;;;;;;5012658;28;20146;-64
2022/10/07 05:22:01;;;;;;;;;;;;;;;;;;5009899;28;20025;-64
2022/10/07 05:24:28;;;;;;;10.93;2.58;;;;;;;;;;5008021;28;19917;-64
2022/10/07 05:26:54;;;;;;;10.77;2.95;;;;;;;;;;5011600;28;20025;-64
2022/10/07 05:29:20;;;;;;;;;;;;;;;;;;4993289;28;20462;-64
2022/10/07 05:31:48;;;;;;;11.82;2.40;;;;;;;;;;5008935;28;19966;-64
2022/10/07 05:34:14;;;;;;;11.25;2.38;;;;;;;;;;5006849;28;20216;-64
2022/10/07 05:36:41;;;;;;;11.85;2.50;;;;;;;;;;5006497;28;20499;-64
2022/10/07 05:39:07;;;;;;;9.85;2.40;;;;;;;;;;5012326;28;20392;-64
2022/10/07 05:41:33;;;;;;;11.43;2.50;;;;;;;;;;5005912;28;20037;-64
2022/10/07 05:44:00;;;;;;;;;;;;;;;;;;5006924;28;20041;-64
2022/10/07 05:46:27;;;;;;;13.57;2.70;;;;;;;;;;5006496;28;20695;-64
2022/10/07 05:48:54;;;;;;;12.95;2.40;;;;;;;;;;5008550;28;20064;-64
2022/10/07 05:51:23;;;;;;;11.15;2.83;;;;;;;;;;5007891;28;20471;-65
2022/10/07 05:53:53;;;;;;;13.18;2.13;;;;;;;;;;5009516;28;20041;-64
2022/10/07 05:56:21;;;;;;;15.40;2.75;;;;;;;;;;5003659;28;20025;-65
2022/10/07 05:58:51;;;;;;;15.30;3.20;;;;;;;;;;5005720;28;20044;-64
2022/10/07 06:01:20;;;;;;;11.27;2.75;;;;;;;;;;5006946;28;20096;-65
2022/10/07 06:03:51;;;;;;;16.27;2.85;;;;;;;;;;4992813;28;20033;-65
2022/10/07 06:06:20;;;;;;;14.00;2.60;;;;;;;;;;5010950;28;20528;-64
2022/10/07 06:08:50;;;;;;;15.20;2.97;;;;;;;;;;4993283;28;20037;-64
2022/10/07 06:14:04;;;;;;;18.80;4.00;;;;;;;;;;5008374;28;20675;-64
2022/10/07 06:16:32;;;;;;;14.52;3.22;;;;;;;;;;5002107;28;20111;-64
2022/10/07 06:18:59;;;;;;;15.90;3.15;;;;;;;;;;5010566;28;20030;-65
2022/10/07 06:21:27;;;;;;;16.38;3.30;;;;;;;;;;5003165;28;20045;-64
2022/10/07 06:23:55;;;;;;;17.55;3.40;;;;;;;;;;5007553;28;20052;-66
2022/10/07 06:26:23;;;;;;;16.40;3.50;;;;;;;;;;5004719;28;20064;-64
2022/10/07 06:28:50;;;;;;;17.52;3.42;;;;;;;;;;5002961;28;20034;-64
2022/10/07 06:31:22;;;;;;;21.02;3.75;;;;;;;;;;5005582;28;20466;-65
2022/10/07 06:33:49;;;;;;;13.93;3.17;;;;;;;;;;5006548;28;20532;-65
2022/10/07 06:36:17;;;;;;;14.13;2.80;;;;;;;;;;5012940;28;20033;-65
2022/10/07 06:38:52;;;;;;;14.55;2.70;;;;;;;;;;5009554;28;20029;-64
2022/10/07 06:41:20;;;;;;;13.57;3.33;;;;;;;;;;5005153;28;20562;-64
2022/10/07 06:43:48;;;;;;;16.38;3.00;;;;;;;;;;4990809;28;20037;-64
2022/10/07 06:46:15;;;;;;;21.58;3.80;;;;;;;;;;5007346;28;20033;-66
2022/10/07 06:48:43;;;;;;;22.38;3.70;;;;;;;;;;5008931;28;20032;-66
2022/10/07 06:51:13;;;;;;;14.77;2.75;;;;;;;;;;5013112;28;20411;-63
2022/10/07 06:53:39;;;;;;;14.38;3.22;;;;;;;;;;5001922;28;20026;-64
2022/10/07 06:56:05;;;;;;;14.02;3.75;;;;;;;;;;5009603;28;20453;-63
2022/10/07 06:58:32;;;;;;;14.93;3.58;;;;;;;;;;5000959;28;20335;-63
2022/10/07 07:00:58;;;;;;;17.23;3.75;;;;;;;;;;5005457;28;20127;-64
2022/10/07 07:03:25;;;;;;;16.58;3.90;;;;;;;;;;4989646;28;20547;-65
2022/10/07 07:05:51;;;;;;;15.10;3.70;;;;;;;;;;5009854;28;20107;-64
2022/10/07 07:08:18;;;;;;;16.42;3.45;;;;;;;;;;5012623;28;20037;-64
2022/10/07 07:10:45;;;;;;;17.60;3.30;;;;;;;;;;5004947;28;20553;-64
2022/10/07 07:13:11;;;;;;;20.58;3.95;;;;;;;;;;5005678;28;20508;-66
2022/10/07 07:15:38;;;;;;;14.35;3.35;;;;;;;;;;4989767;28;20111;-64
2022/10/07 07:18:05;;;;;;;17.98;3.60;;;;;;;;;;5009773;28;20511;-64
2022/10/07 07:20:36;;;;;;;14.05;3.70;;;;;;;;;;5005732;28;20056;-64
2022/10/07 07:23:02;;;;;;;15.23;3.47;;;;;;;;;;5007821;28;20921;-65
2022/10/07 07:25:28;;;;;;;16.17;4.00;;;;;;;;;;4986420;28;20033;-65
2022/10/07 07:27:57;;;;;;;;;;;;;;;;;;5008733;28;20033;-64
2022/10/07 07:30:23;;;;;;;13.70;3.92;;;;;;;;;;5007384;28;20379;-64
2022/10/07 07:32:49;;;;;;;14.65;3.40;;;;;;;;;;5007373;28;20032;-64
2022/10/07 07:35:16;;;;;;;18.23;3.70;;;;;;;;;;5009289;28;20128;-65
2022/10/07 07:37:42;;;;;;;19.95;4.03;;;;;;;;;;5004547;28;20036;-64
2022/10/07 07:40:08;;;;;;;;;;;;;;;;;;4988405;28;20068;-65
2022/10/07 07:42:34;;;;;;;17.00;3.78;;;;;;;;;;5004237;28;20027;-64
2022/10/07 07:45:00;;;;;;;;;;;;;;;;;;5011077;28;20033;-64
2022/10/07 07:47:28;;;;;;;15.50;3.45;;;;;;;;;;5004228;28;19913;-63
2022/10/07 07:49:55;;;;;;;15.98;3.65;;;;;;;;;;5009956;28;20087;-65
2022/10/07 07:52:24;;;;;;;21.40;3.60;;;;;;;;;;4987936;28;20144;-65
2022/10/07 07:54:56;;;;;;;17.02;4.30;;;;;;;;;;4990791;28;20108;-64
2022/10/07 07:57:25;;;;;;;19.15;3.92;;;;;;;;;;5009262;28;20387;-64
2022/10/07 07:59:54;;;;;;;18.73;4.53;;;;;;;;;;5001147;28;20073;-64
2022/10/07 08:02:23;;;;;;;30.35;5.20;;;;;;;;;;5003723;28;20053;-63
2022/10/07 08:04:50;;;;;;;17.00;4.50;;;;;;;;;;5012829;28;20364;-64
2022/10/07 08:07:18;;;;;;;17.38;3.97;;;;;;;;;;5009089;28;20128;-65
2022/10/07 08:09:45;;;;;;;20.92;4.50;;;;;;;;;;5008181;28;20139;-64
2022/10/07 08:12:13;;;;;;;19.65;4.60;;;;;;;;;;5005974;28;20026;-64
2022/10/07 08:14:42;;;;;;;19.58;4.65;;;;;;;;;;5002769;28;21272;-64
2022/10/07 08:17:09;;;;;;;20.00;4.57;;;;;;;;;;5011905;28;20048;-64
2022/10/07 08:19:36;;;;;;;18.00;3.83;;;;;;;;;;5008601;28;20049;-65
2022/10/07 08:22:05;;;;;;;18.45;4.32;;;;;;;;;;5008546;28;20041;-64
2022/10/07 08:24:33;;;;;;;18.77;4.45;;;;;;;;;;5002742;28;20372;-64
2022/10/07 08:27:00;;;;;;;17.85;4.78;;;;;;;;;;5014687;28;20633;-64
2022/10/07 08:29:28;;;;;;;19.80;4.97;;;;;;;;;;5007151;28;20083;-66
2022/10/07 08:31:57;;;;;;;20.67;4.55;;;;;;;;;;5006474;28;20487;-65
2022/10/07 08:34:25;;;;;;;19.15;4.70;;;;;;;;;;5007635;28;20453;-64
2022/10/07 08:36:52;;;;;;;21.85;4.25;;;;;;;;;;5007418;28;20667;-64
2022/10/07 08:39:20;;;;;;;18.10;3.97;;;;;;;;;;5006724;28;20029;-64
2022/10/07 08:42:01;;;;;;;19.85;4.63;;;;;;;;;;5010776;28;20045;-64
2022/10/07 08:44:37;;;;;;;19.00;4.05;;;;;;;;;;5007654;28;20075;-64
2022/10/07 08:47:19;;;;;;;24.55;4.80;;;;;;;;;;5007898;28;20346;-64
2022/10/07 08:50:12;;;;;;;20.73;4.88;;;;;;;;;;5008937;28;20917;-64
2022/10/07 08:52:38;;;;;;;24.25;4.60;;;;;;;;;;5002890;28;20152;-63
2022/10/07 08:55:27;;;;;;;20.08;4.75;;;;;;;;;;5012313;28;20048;-65
2022/10/07 08:58:08;;;;;;;19.27;5.07;;;;;;;;;;5008805;28;20053;-64
2022/10/07 09:00:44;;;;;;;18.75;4.78;;;;;;;;;;5004481;28;20014;-64
2022/10/07 09:03:13;;;;;;;21.83;5.32;;;;;;;;;;5011015;28;20068;-66
2022/10/07 09:05:42;;;;;;;22.25;5.28;;;;;;;;;;5005956;28;20556;-64
2022/10/07 09:08:16;;;;;;;15.55;4.47;;;;;;;;;;5009617;28;20040;-66
2022/10/07 09:10:44;;;;;;;15.70;4.57;;;;;;;;;;5005557;28;20755;-66
2022/10/07 09:13:15;;;;;;;18.50;5.07;;;;;;;;;;5008852;28;20060;-66
2022/10/07 09:15:47;;;;;;;20.55;5.68;;;;;;;;;;5007906;28;20017;-64
2022/10/07 09:18:19;;;;;;;22.15;7.20;;;;;;;;;;5004175;28;20035;-65
2022/10/07 09:20:52;;;;;;;21.25;5.88;;;;;;;;;;4995587;28;20052;-66
2022/10/07 09:23:18;;;;;;;18.40;5.63;;;;;;;;;;4992080;28;20408;-65
2022/10/07 09:25:44;;;;;;;20.15;5.80;;;;;;;;;;4975599;28;20061;-65
2022/10/07 09:28:15;;;;;;;22.10;5.97;;;;;;;;;;4993866;28;20021;-65
2022/10/07 09:30:41;;;;;;;20.88;5.47;;;;;;;;;;4994483;28;20323;-66
2022/10/07 09:33:19;;;;;;;17.45;4.72;;;;;;;;;;4995839;28;20022;-65
2022/10/07 09:35:51;;;;;;;20.13;5.57;;;;;;;;;;4995457;28;20380;-65
2022/10/07 09:38:28;;;;;;;26.75;9.07;;;;;;;;;;4988341;28;20061;-65
2022/10/07 09:41:14;;;;;;;22.15;8.05;;;;;;;;;;4990657;28;20155;-65
2022/10/07 09:43:42;;;;;;;24.50;7.97;;;;;;;;;;4967394;28;20029;-66
2022/10/07 09:46:25;;;;;;;24.25;7.80;;;;;;;;;;4996013;28;20275;-65
2022/10/07 09:48:55;;;;;;;22.63;7.72;;;;;;;;;;4986615;28;20038;-65
2022/10/07 09:51:26;;;;;;;23.08;7.85;;;;;;;;;;4994052;28;20443;-65
2022/10/07 09:54:02;;;;;;;26.50;10.70;;;;;;;;;;4995343;28;20033;-65
2022/10/07 09:56:42;;;;;;;28.00;11.68;;;;;;;;;;4990685;28;20026;-66
2022/10/07 09:59:23;;;;;;;26.83;9.68;;;;;;;;;;4996610;28;20380;-66
2022/10/07 10:01:52;;;;;;;22.55;7.55;;;;;;;;;;4991828;28;20049;-64
2022/10/07 10:04:20;;;;;;;22.30;6.93;;;;;;;;;;4991857;28;20518;-65
2022/10/07 10:06:48;;;;;;;19.58;5.95;;;;;;;;;;4993338;28;20234;-64
2022/10/07 10:09:25;;;;;;;17.60;4.40;;;;;;;;;;4996732;28;20033;-64
2022/10/07 10:12:12;;;;;;;20.20;5.03;;;;;;;;;;4988703;28;20248;-64
2022/10/07 10:14:47;;;;;;;19.38;4.53;;;;;;;;;;4991304;28;20467;-64
2022/10/07 10:17:41;;;;;;;19.67;4.95;;;;;;;;;;4989195;28;20033;-64
2022/10/07 10:20:26;;;;;;;24.30;5.80;;;;;;;;;;4968252;28;20038;-68
2022/10/07 10:22:54;;;;;;;23.40;7.15;;;;;;;;;;4984387;28;20038;-66
2022/10/07 10:28:43;;;;;;;24.73;7.82;;;;;;;;;;4984842;28;20060;-64
2022/10/07 10:31:32;;;;;;;23.77;8.23;;;;;;;;;;4986445;28;20028;-64
2022/10/07 10:34:23;;;;;;;25.27;6.90;;;;;;;;;;4986586;28;20092;-64
2022/10/07 10:36:56;;;;;;;19.73;5.90;;;;;;;;;;5001063;28;20048;-65
2022/10/07 10:39:27;;;;;;;16.05;5.50;;;;;;;;;;5009283;28;20122;-65
2022/10/07 10:42:00;;;;;;;17.83;4.93;;;;;;;;;;5030711;28;20025;-64
2022/10/07 10:44:39;;;;;;;20.70;5.03;;;;;;;;;;5026632;28;20548;-65
2022/10/07 10:47:25;;;;;;;15.80;4.00;;;;;;;;;;5013541;28;20036;-65
2022/10/07 10:49:53;;;;;;;15.90;3.70;;;;;;;;;;5027220;28;20387;-65
2022/10/07 10:52:25;;;;;;;15.30;3.35;;;;;;;;;;5026947;28;20025;-65
2022/10/07 10:55:11;;;;;;;14.07;3.10;;;;;;;;;;5011802;28;20467;-65
2022/10/07 10:57:44;;;;;;;16.70;3.30;;;;;;;;;;5026378;28;20474;-65
2022/10/07 11:00:15;;;;;;;16.63;3.65;;;;;;;;;;5027118;28;20459;-65
2022/10/07 11:02:54;;;;;;;15.50;2.72;;;;;;;;;;5025692;28;20037;-65
2022/10/07 11:05:22;;;;;;;13.30;3.33;;;;;;;;;;5026945;28;20401;-64
2022/10/07 11:07:55;;;;;;;16.20;3.40;;;;;;;;;;5028855;28;20463;-65
2022/10/07 11:10:21;;;;;;;15.27;2.60;;;;;;;;;;5024995;28;20025;-64
2022/10/07 11:12:53;;;;;;;14.98;2.70;;;;;;;;;;5025268;28;20033;-65
2022/10/07 11:15:27;;;;;;;13.45;2.83;;;;;;;;;;4996022;28;20477;-65
2022/10/07 11:17:57;;;;;;;14.15;2.80;;;;;;;;;;5024138;28;20025;-65
2022/10/07 11:20:32;;;;;;;15.55;3.22;;;;;;;;;;5025491;28;20388;-66
2022/10/07 11:23:18;;;;;;;13.55;3.05;;;;;;;;;;5029908;28;20036;-66
2022/10/07 11:25:53;;;;;;;14.90;3.38;;;;;;;;;;4972984;28;20574;-66
2022/10/07 11:28:22;;;;;;;14.32;3.22;;;;;;;;;;5020181;28;20050;-65
2022/10/07 11:31:08;;;;;;;19.70;4.10;;;;;;;;;;5029578;28;20032;-66
2022/10/07 11:33:52;;;;;;;15.93;3.58;;;;;;;;;;5027098;28;20531;-65
2022/10/07 11:36:22;;;;;;;16.10;4.10;;;;;;;;;;5035626;28;20201;-66
2022/10/07 11:38:50;;;;;;;15.02;3.47;;;;;;;;;;5011539;28;20040;-66
2022/10/07 11:41:16;;;;;;;14.52;3.53;;;;;;;;;;5030061;28;20100;-65
2022/10/07 11:43:54;;;;;;;12.50;3.67;;;;;;;;;;5031015;28;20040;-65
2022/10/07 11:46:39;;;;;;;13.75;3.15;;;;;;;;;;5026134;28;20524;-67
2022/10/07 11:49:24;;;;;;;12.07;2.90;;;;;;;;;;5034965;28;20052;-66
2022/10/07 11:51:56;;;;;;;14.40;3.53;;;;;;;;;;5033323;28;20033;-66
2022/10/07 11:54:30;;;;;;;16.35;3.17;;;;;;;;;;5012410;28;20357;-66
2022/10/07 11:56:59;;;;;;;12.32;2.88;;;;;;;;;;5029113;28;20090;-66
2022/10/07 11:59:47;;;;;;;15.93;3.38;;;;;;;;;;5013396;28;20124;-66
2022/10/07 12:02:31;;;;;;;15.05;3.03;;;;;;;;;;5032789;28;20029;-66
2022/10/07 12:05:02;;;;;;;13.57;2.90;;;;;;;;;;5028610;28;20025;-66
2022/10/07 12:07:46;;;;;;;14.30;2.88;;;;;;;;;;5027782;28;20160;-66
2022/10/07 12:10:20;;;;;;;17.30;3.37;;;;;;;;;;5015293;28;20491;-66
2022/10/07 12:13:11;;;;;;;15.32;3.60;;;;;;;;;;5030450;28;20041;-67
2022/10/07 12:15:43;;;;;;;11.95;2.63;;;;;;;;;;4939586;28;20568;-66
2022/10/07 12:18:18;;;;;;;15.07;3.05;;;;;;;;;;4942913;28;20522;-67
2022/10/07 12:20:53;;;;;;;15.35;3.30;;;;;;;;;;4942931;28;20413;-66
2022/10/07 12:23:24;;;;;;;13.60;3.15;;;;;;;;;;4939284;28;20031;-66
2022/10/07 12:25:59;;;;;;;13.95;3.10;;;;;;;;;;4943370;28;21282;-66
2022/10/07 12:28:26;;;;;;;;;;;;;;;;;;4926745;28;20027;-66
2022/10/07 12:30:55;;;;;;;13.63;2.75;;;;;;;;;;4944935;28;20004;-66
2022/10/07 12:33:32;;;;;;;16.60;3.25;;;;;;;;;;4942899;28;20637;-66
2022/10/07 12:36:20;;;;;;;16.13;3.42;;;;;;;;;;4939138;28;20038;-66
2022/10/07 12:38:55;;;;;;;14.98;2.92;;;;;;;;;;4929932;28;20083;-66
2022/10/07 12:41:38;;;;;;;16.67;3.42;;;;;;;;;;4940355;28;20027;-66
2022/10/07 12:44:19;;;;;;;14.80;3.08;;;;;;;;;;4943980;28;20541;-66
2022/10/07 12:46:49;;;;;;;13.65;3.35;;;;;;;;;;4946860;28;20053;-67
2022/10/07 12:49:23;;;;;;;18.17;3.30;;;;;;;;;;4941390;28;20089;-66
2022/10/07 12:51:52;;;;;;;14.00;3.75;;;;;;;;;;4952440;28;20515;-67
2022/10/07 12:54:19;;;;;;;16.23;4.13;;;;;;;;;;4990250;28;20045;-66
2022/10/07 12:56:46;;;;;;;16.75;3.45;;;;;;;;;;4993091;28;20033;-66
2022/10/07 13:02:16;;;;;;;21.20;3.72;;;;;;;;;;4990808;28;20168;-68
2022/10/07 13:05:04;;;;;;;23.67;3.63;;;;;;;;;;4982141;28;20486;-66
2022/10/07 13:07:50;;;;;;;16.40;3.40;;;;;;;;;;4981025;28;20030;-66
2022/10/07 13:10:30;;;;;;;19.58;3.83;;;;;;;;;;4989037;28;20045;-66
2022/10/07 13:13:01;;;;;;;16.48;3.88;;;;;;;;;;4970635;28;20037;-66
2022/10/07 13:15:30;;;;;;;21.50;4.78;;;;;;;;;;4966233;28;20401;-67
2022/10/07 13:18:08;;;;;;;22.67;4.30;;;;;;;;;;4982540;28;20338;-69
2022/10/07 13:20:38;;;;;;;20.48;4.25;;;;;;;;;;4955327;28;20030;-68
2022/10/07 13:23:06;;;;;;;18.08;4.22;;;;;;;;;;4979276;28;20038;-67
2022/10/07 13:25:32;;;;;;;18.02;3.90;;;;;;;;;;4979595;28;20411;-66
2022/10/07 13:27:59;;;;;;;20.88;4.47;;;;;;;;;;4980130;28;20030;-67
2022/10/07 13:30:31;;;;;;;18.33;3.90;;;;;;;;;;4980494;28;20538;-67
2022/10/07 13:33:11;;;;;;;18.08;4.18;;;;;;;;;;4984708;28;20601;-67
2022/10/07 13:35:37;;;;;;;16.90;3.85;;;;;;;;;;4995965;28;20407;-66
2022/10/07 13:38:03;;;;;;;;;;;;;;;;;;5024885;28;20036;-69
2022/10/07 13:40:34;;;;;;;20.02;3.60;;;;;;;;;;5021041;28;19908;-68
2022/10/07 13:43:06;;;;;;;15.85;3.67;;;;;;;;;;5012964;28;20864;-69
2022/10/07 13:45:39;;;;;;;17.23;4.07;;;;;;;;;;5019144;28;20434;-68
2022/10/07 13:48:14;;;;;;;22.67;5.90;;;;;;;;;;5023009;28;20041;-68
2022/10/07 13:50:43;;;;;;;18.50;5.20;;;;;;;;;;5019480;28;20157;-69
2022/10/07 13:53:30;;;;;;;18.20;4.68;;;;;;;;;;5022287;28;20060;-69
2022/10/07 13:56:16;;;;;;;17.20;4.22;;;;;;;;;;5013142;28;20037;-68
2022/10/07 13:58:43;;;;;;;21.53;4.30;;;;;;;;;;5019435;28;20026;-67
2022/10/07 14:01:10;;;;;;;18.15;4.30;;;;;;;;;;5008691;28;20613;-67
2022/10/07 14:03:58;;;;;;;15.40;3.65;;;;;;;;;;5017913;28;20398;-67
2022/10/07 14:06:41;;;;;;;16.60;4.07;;;;;;;;;;4958130;28;21118;-68
2022/10/07 14:09:22;;;;;;;19.58;4.30;;;;;;;;;;5017455;28;20072;-69
2022/10/07 14:11:52;;;;;;;14.35;3.60;;;;;;;;;;5029442;28;20351;-69
2022/10/07 14:14:25;;;;;;;16.98;4.78;;;;;;;;;;5026457;28;20352;-67
2022/10/07 14:16:58;;;;;;;15.02;4.20;;;;;;;;;;5018492;28;20512;-67
2022/10/07 14:19:30;;;;;;;19.13;4.40;;;;;;;;;;5013652;28;20449;-68
2022/10/07 14:22:00;;;;;;;13.80;4.20;;;;;;;;;;5023434;28;20029;-67
2022/10/07 14:24:28;;;;;;;14.82;5.28;;;;;;;;;;5017043;28;20600;-68
2022/10/07 14:26:55;;;;;;;19.40;5.00;;;;;;;;;;5023905;28;20033;-68
2022/10/07 14:29:36;;;;;;;19.63;4.93;;;;;;;;;;5014690;28;20035;-68
2022/10/07 14:37:48;;;;;;;19.48;4.60;;;;;;;;;;4992601;28;20546;-68
2022/10/07 14:40:21;;;;;;;20.05;4.32;;;;;;;;;;4995099;28;20765;-68
2022/10/07 14:42:52;;;;;;;17.88;4.32;;;;;;;;;;4996024;28;20103;-68
2022/10/07 14:45:21;;;;;;;19.10;4.28;;;;;;;;;;4991606;28;20042;-69
2022/10/07 14:47:48;;;;;;;17.23;5.00;;;;;;;;;;4993740;28;20034;-69
2022/10/07 14:50:18;;;;;;;21.27;6.63;;;;;;;;;;5000014;28;20049;-67
2022/10/07 14:52:47;;;;;;;24.10;7.22;;;;;;;;;;4995516;28;20426;-67
2022/10/07 14:55:13;;;;;;;28.00;9.10;;;;;;;;;;4992289;28;20117;-68
2022/10/07 14:57:39;;;;;;;27.10;9.10;;;;;;;;;;4988798;28;20767;-68
2022/10/07 15:00:05;;;;;;;;;;;;;;;;;;4993591;28;20391;-68
2022/10/07 15:02:31;;;;;;;22.63;7.20;;;;;;;;;;4991971;28;19917;-68
2022/10/07 15:04:57;;;;;;;;;;;;;;;;;;5002257;28;20029;-67
2022/10/07 15:07:23;;;;;;;23.70;6.75;;;;;;;;;;4993479;28;19914;-67
2022/10/07 15:09:49;;;;;;;19.48;5.63;;;;;;;;;;5000676;28;20095;-67
2022/10/07 15:12:16;;;;;;;20.02;5.47;;;;;;;;;;5003739;28;20731;-68
2022/10/07 15:14:42;;;;;;;;;;;;;;;;;;4995904;28;20387;-67
2022/10/07 15:17:10;;;;;;;23.70;6.88;;;;;;;;;;5009919;28;19912;-67
2022/10/07 15:19:37;;;;;;;20.95;5.60;;;;;;;;;;5006850;28;20056;-67